createdAt,value
2017-07-25T00:01:00.448Z,31.7
2017-07-25T00:01:55.541Z,31.7
2017-07-25T00:02:58.786Z,31.7
2017-07-25T00:04:00.671Z,31.7
2017-07-25T00:05:01.020Z,31.7
2017-07-25T00:06:01.052Z,31.6
2017-07-25T00:06:56.091Z,31.7
2017-07-25T00:07:55.916Z,31.7
2017-07-25T00:09:00.938Z,31.7
2017-07-25T00:09:59.203Z,31.6
2017-07-25T00:10:56.387Z,31.7
2017-07-25T00:12:01.450Z,31.6
2017-07-25T00:12:59.328Z,31.6
2017-07-25T00:14:01.530Z,31.7
2017-07-25T00:14:56.584Z,31.7
2017-07-25T00:16:01.624Z,31.7
2017-07-25T00:17:01.691Z,31.7
2017-07-25T00:17:59.288Z,31.7
2017-07-25T00:19:01.793Z,31.6
2017-07-25T00:19:56.494Z,31.6
2017-07-25T00:20:56.591Z,31.6
2017-07-25T00:21:59.769Z,31.6
2017-07-25T00:22:56.640Z,31.6
2017-07-25T00:23:57.004Z,31.6
2017-07-25T00:24:57.073Z,31.6
2017-07-25T00:25:57.048Z,31.6
2017-07-25T00:26:59.993Z,31.6
2017-07-25T00:27:59.711Z,31.6
2017-07-25T00:28:57.129Z,31.6
2017-07-25T00:29:59.752Z,31.6
2017-07-25T00:30:59.890Z,31.6
2017-07-25T00:31:57.293Z,31.6
2017-07-25T00:33:02.051Z,31.6
2017-07-25T00:33:59.967Z,31.6
2017-07-25T00:34:59.976Z,31.6
2017-07-25T00:35:57.451Z,31.6
2017-07-25T00:36:57.533Z,31.6
2017-07-25T00:37:57.535Z,31.6
2017-07-25T00:38:57.588Z,31.6
2017-07-25T00:40:02.302Z,31.6
2017-07-25T00:41:00.592Z,31.6
2017-07-25T00:42:02.452Z,31.6
2017-07-25T00:42:57.758Z,31.6
2017-07-25T00:43:57.566Z,31.6
2017-07-25T00:45:02.871Z,31.6
2017-07-25T00:46:02.606Z,31.6
2017-07-25T00:47:02.663Z,31.6
2017-07-25T00:47:57.751Z,31.6
2017-07-25T00:49:02.949Z,31.6
2017-07-25T00:49:58.158Z,31.6
2017-07-25T00:51:01.051Z,31.6
2017-07-25T00:52:03.268Z,31.6
2017-07-25T00:53:03.029Z,31.6
2017-07-25T00:53:58.141Z,31.6
2017-07-25T00:55:03.403Z,31.6
2017-07-25T00:56:03.066Z,31.6
2017-07-25T00:57:03.425Z,31.6
2017-07-25T00:57:58.245Z,31.6
2017-07-25T00:59:01.147Z,31.6
2017-07-25T01:00:03.331Z,31.6
2017-07-25T01:01:03.707Z,31.6
2017-07-25T01:02:03.775Z,31.6
2017-07-25T01:02:58.880Z,31.6
2017-07-25T01:03:58.630Z,31.6
2017-07-25T01:05:04.018Z,31.6
2017-07-25T01:06:03.776Z,31.6
2017-07-25T01:06:59.157Z,31.6
2017-07-25T01:08:02.112Z,31.6
2017-07-25T01:08:59.341Z,31.6
2017-07-25T01:10:04.393Z,31.6
2017-07-25T01:11:04.114Z,31.6
2017-07-25T01:11:59.471Z,31.6
2017-07-25T01:13:02.495Z,31.6
2017-07-25T01:14:02.484Z,31.6
2017-07-25T01:14:59.358Z,31.6
2017-07-25T01:15:59.700Z,31.6
2017-07-25T01:16:59.494Z,31.6
2017-07-25T01:17:59.836Z,31.6
2017-07-25T01:19:04.909Z,31.6
2017-07-25T01:19:59.628Z,31.6
2017-07-25T01:20:59.887Z,31.6
2017-07-25T01:22:02.827Z,31.6
2017-07-25T01:23:04.716Z,31.6
2017-07-25T01:23:59.838Z,31.6
2017-07-25T01:25:02.713Z,31.6
2017-07-25T01:26:00.094Z,31.6
2017-07-25T01:27:00.121Z,31.6
2017-07-25T01:28:00.139Z,31.6
2017-07-25T01:29:00.316Z,31.6
2017-07-25T01:30:00.150Z,31.6
2017-07-25T01:31:00.082Z,31.6
2017-07-25T01:32:05.506Z,31.6
2017-07-25T01:33:05.167Z,31.6
2017-07-25T01:34:05.566Z,31.6
2017-07-25T01:35:03.460Z,31.6
2017-07-25T01:36:00.385Z,31.5
2017-07-25T01:37:00.353Z,31.6
2017-07-25T01:38:00.706Z,31.6
2017-07-25T01:39:00.412Z,31.6
2017-07-25T01:40:05.396Z,31.6
2017-07-25T01:41:03.691Z,31.6
2017-07-25T01:42:00.777Z,31.6
2017-07-25T01:43:01.011Z,31.6
2017-07-25T01:44:05.536Z,31.6
2017-07-25T01:45:06.287Z,31.6
2017-07-25T01:46:03.614Z,31.6
2017-07-25T01:47:01.999Z,31.6
2017-07-25T01:48:01.040Z,31.6
2017-07-25T01:49:02.052Z,31.6
2017-07-25T01:50:02.120Z,31.6
2017-07-25T01:51:01.035Z,31.5
2017-07-25T01:52:02.317Z,31.6
2017-07-25T01:53:04.254Z,31.6
2017-07-25T01:54:05.945Z,31.6
2017-07-25T01:55:06.327Z,31.6
2017-07-25T01:56:04.278Z,31.6
2017-07-25T01:57:06.666Z,31.6
2017-07-25T01:58:02.860Z,31.6
2017-07-25T01:59:02.460Z,31.6
2017-07-25T02:00:01.619Z,31.6
2017-07-25T02:01:02.161Z,31.6
2017-07-25T02:02:06.680Z,31.6
2017-07-25T02:03:04.505Z,31.6
2017-07-25T02:04:01.789Z,31.6
2017-07-25T02:05:04.617Z,31.6
2017-07-25T02:06:02.056Z,31.5
2017-07-25T02:07:01.832Z,31.5
2017-07-25T02:08:04.996Z,31.5
2017-07-25T02:09:02.330Z,31.6
2017-07-25T02:10:03.255Z,31.6
2017-07-25T02:11:02.265Z,31.5
2017-07-25T02:12:02.413Z,31.6
2017-07-25T02:13:02.971Z,31.6
2017-07-25T02:14:02.573Z,31.5
2017-07-25T02:15:03.218Z,31.5
2017-07-25T02:16:02.839Z,31.6
2017-07-25T02:17:07.496Z,31.6
2017-07-25T02:18:06.279Z,31.6
2017-07-25T02:19:03.232Z,31.6
2017-07-25T02:20:07.521Z,31.6
2017-07-25T02:21:02.865Z,31.6
2017-07-25T02:22:02.583Z,31.6
2017-07-25T02:23:05.514Z,31.6
2017-07-25T02:24:03.026Z,31.6
2017-07-25T02:25:02.850Z,31.6
2017-07-25T02:26:03.230Z,31.6
2017-07-25T02:27:02.869Z,31.6
2017-07-25T02:28:02.934Z,31.6
2017-07-25T02:29:02.970Z,31.6
2017-07-25T02:30:03.325Z,31.6
2017-07-25T02:31:03.100Z,31.6
2017-07-25T02:32:03.561Z,31.6
2017-07-25T02:33:03.373Z,31.6
2017-07-25T02:34:03.689Z,31.6
2017-07-25T02:35:03.478Z,31.6
2017-07-25T02:36:08.746Z,31.6
2017-07-25T02:37:08.434Z,31.6
2017-07-25T02:38:03.689Z,31.6
2017-07-25T02:39:08.772Z,31.6
2017-07-25T02:40:03.849Z,31.6
2017-07-25T02:41:06.472Z,31.6
2017-07-25T02:42:03.692Z,31.6
2017-07-25T02:43:03.949Z,31.6
2017-07-25T02:44:04.893Z,31.6
2017-07-25T02:45:08.925Z,31.5
2017-07-25T02:46:08.945Z,31.6
2017-07-25T02:47:04.060Z,31.5
2017-07-25T02:48:06.951Z,31.5
2017-07-25T02:49:04.197Z,31.5
2017-07-25T02:50:09.455Z,31.5
2017-07-25T02:51:09.520Z,31.5
2017-07-25T02:52:09.761Z,31.5
2017-07-25T02:53:04.696Z,31.5
2017-07-25T02:54:04.542Z,31.5
2017-07-25T02:55:04.334Z,31.5
2017-07-25T02:56:07.225Z,31.5
2017-07-25T02:57:07.259Z,31.5
2017-07-25T02:58:04.617Z,31.5
2017-07-25T02:59:04.995Z,31.5
2017-07-25T03:00:04.893Z,31.5
2017-07-25T03:01:04.660Z,31.5
2017-07-25T03:02:05.644Z,31.5
2017-07-25T03:03:04.791Z,31.5
2017-07-25T03:04:04.854Z,31.5
2017-07-25T03:05:10.232Z,31.5
2017-07-25T03:06:05.827Z,31.5
2017-07-25T03:07:05.375Z,31.5
2017-07-25T03:08:05.171Z,31.5
2017-07-25T03:09:05.172Z,31.5
2017-07-25T03:10:08.445Z,31.5
2017-07-25T03:11:05.567Z,31.5
2017-07-25T03:12:05.379Z,31.5
2017-07-25T03:13:08.538Z,31.5
2017-07-25T03:14:08.601Z,31.5
2017-07-25T03:15:05.533Z,31.5
2017-07-25T03:16:05.639Z,31.5
2017-07-25T03:17:05.985Z,31.5
2017-07-25T03:18:08.681Z,31.5
2017-07-25T03:19:06.137Z,31.5
2017-07-25T03:20:05.965Z,31.5
2017-07-25T03:21:10.935Z,31.5
2017-07-25T03:22:08.899Z,31.5
2017-07-25T03:23:07.115Z,31.5
2017-07-25T03:24:11.134Z,31.5
2017-07-25T03:25:10.359Z,31.5
2017-07-25T03:26:09.463Z,31.5
2017-07-25T03:27:06.587Z,31.5
2017-07-25T03:28:06.676Z,31.5
2017-07-25T03:29:09.203Z,31.5
2017-07-25T03:30:06.794Z,31.5
2017-07-25T03:31:06.526Z,31.5
2017-07-25T03:32:09.366Z,31.5
2017-07-25T03:33:08.051Z,31.5
2017-07-25T03:34:09.460Z,31.5
2017-07-25T03:35:06.686Z,31.5
2017-07-25T03:36:07.077Z,31.5
2017-07-25T03:37:12.052Z,31.5
2017-07-25T03:38:11.751Z,31.5
2017-07-25T03:39:11.765Z,31.5
2017-07-25T03:40:12.145Z,31.5
2017-07-25T03:41:10.129Z,31.5
2017-07-25T03:42:10.191Z,31.5
2017-07-25T03:43:07.412Z,31.5
2017-07-25T03:44:12.450Z,31.5
2017-07-25T03:45:07.262Z,31.5
2017-07-25T03:46:07.546Z,31.5
2017-07-25T03:47:07.603Z,31.5
2017-07-25T03:48:10.552Z,31.5
2017-07-25T03:49:07.417Z,31.5
2017-07-25T03:50:10.343Z,31.5
2017-07-25T03:51:07.516Z,31.5
2017-07-25T03:52:12.906Z,31.5
2017-07-25T03:53:07.900Z,31.5
2017-07-25T03:54:07.657Z,31.5
2017-07-25T03:55:10.626Z,31.5
2017-07-25T03:56:08.118Z,31.5
2017-07-25T03:57:07.931Z,31.5
2017-07-25T03:58:11.172Z,31.5
2017-07-25T03:59:13.368Z,31.5
2017-07-25T04:00:08.463Z,31.5
2017-07-25T04:01:08.141Z,31.5
2017-07-25T04:02:11.076Z,31.5
2017-07-25T04:03:13.231Z,31.5
2017-07-25T04:04:08.581Z,31.5
2017-07-25T04:05:08.383Z,31.5
2017-07-25T04:06:13.694Z,31.5
2017-07-25T04:07:13.702Z,31.5
2017-07-25T04:08:08.775Z,31.5
2017-07-25T04:09:11.393Z,31.5
2017-07-25T04:10:09.157Z,31.5
2017-07-25T04:11:11.812Z,31.5
2017-07-25T04:12:12.372Z,31.5
2017-07-25T04:13:14.028Z,31.5
2017-07-25T04:14:12.007Z,31.5
2017-07-25T04:15:09.123Z,31.5
2017-07-25T04:16:14.223Z,31.5
2017-07-25T04:17:15.277Z,31.5
2017-07-25T04:18:09.072Z,31.5
2017-07-25T04:19:12.320Z,31.5
2017-07-25T04:20:14.204Z,31.5
2017-07-25T04:21:12.469Z,31.5
2017-07-25T04:22:12.528Z,31.4
2017-07-25T04:23:14.416Z,31.4
2017-07-25T04:24:09.770Z,31.4
2017-07-25T04:25:12.808Z,31.4
2017-07-25T04:26:14.882Z,31.4
2017-07-25T04:27:09.934Z,31.4
2017-07-25T04:28:12.888Z,31.4
2017-07-25T04:29:10.012Z,31.4
2017-07-25T04:30:09.807Z,31.4
2017-07-25T04:31:15.120Z,31.4
2017-07-25T04:32:10.125Z,31.4
2017-07-25T04:33:13.079Z,31.4
2017-07-25T04:34:15.318Z,31.4
2017-07-25T04:35:10.633Z,31.5
2017-07-25T04:36:15.822Z,31.5
2017-07-25T04:37:10.297Z,31.5
2017-07-25T04:38:15.083Z,31.4
2017-07-25T04:39:10.136Z,31.2
2017-07-25T04:40:15.381Z,31
2017-07-25T04:41:15.229Z,30.7
2017-07-25T04:42:13.356Z,30.4
2017-07-25T04:43:10.225Z,30.2
2017-07-25T04:44:10.578Z,30
2017-07-25T04:45:10.429Z,29.8
2017-07-25T04:46:10.472Z,29.6
2017-07-25T04:47:10.806Z,29.4
2017-07-25T04:48:10.567Z,29.3
2017-07-25T04:49:13.448Z,29.2
2017-07-25T04:50:10.940Z,29.1
2017-07-25T04:51:11.026Z,29
2017-07-25T04:52:11.101Z,28.9
2017-07-25T04:53:10.823Z,28.8
2017-07-25T04:54:13.739Z,28.8
2017-07-25T04:55:16.239Z,28.7
2017-07-25T04:56:16.259Z,28.7
2017-07-25T04:57:16.005Z,28.6
2017-07-25T04:58:14.283Z,28.5
2017-07-25T04:59:16.415Z,28.5
2017-07-25T05:00:16.500Z,28.5
2017-07-25T05:01:11.305Z,28.4
2017-07-25T05:02:11.647Z,28.4
2017-07-25T05:03:11.623Z,28.3
2017-07-25T05:04:16.380Z,28.4
2017-07-25T05:05:11.476Z,28.4
2017-07-25T05:06:16.792Z,28.4
2017-07-25T05:07:14.680Z,28.5
2017-07-25T05:08:14.770Z,28.5
2017-07-25T05:09:11.663Z,28.5
2017-07-25T05:10:14.568Z,28.5
2017-07-25T05:11:12.425Z,28.4
2017-07-25T05:12:17.049Z,28.4
2017-07-25T05:13:12.076Z,28.4
2017-07-25T05:14:17.167Z,28.4
2017-07-25T05:15:15.578Z,28.4
2017-07-25T05:16:12.933Z,28.4
2017-07-25T05:17:15.175Z,28.4
2017-07-25T05:18:14.855Z,28.3
2017-07-25T05:19:12.076Z,28.3
2017-07-25T05:20:12.132Z,28.2
2017-07-25T05:21:17.290Z,28.2
2017-07-25T05:22:12.501Z,28.1
2017-07-25T05:23:17.166Z,28.1
2017-07-25T05:24:15.156Z,28
2017-07-25T05:25:12.589Z,28.1
2017-07-25T05:26:15.528Z,28.2
2017-07-25T05:27:12.353Z,28.2
2017-07-25T05:28:15.195Z,28.2
2017-07-25T05:29:17.512Z,28.1
2017-07-25T05:30:17.452Z,28.1
2017-07-25T05:31:15.430Z,28.1
2017-07-25T05:32:12.942Z,28
2017-07-25T05:33:13.533Z,27.9
2017-07-25T05:34:12.764Z,27.9
2017-07-25T05:35:18.050Z,28
2017-07-25T05:36:15.694Z,28
2017-07-25T05:37:13.217Z,28
2017-07-25T05:38:18.201Z,27.9
2017-07-25T05:39:14.058Z,27.9
2017-07-25T05:40:16.552Z,27.9
2017-07-25T05:41:13.710Z,27.9
2017-07-25T05:42:18.217Z,27.9
2017-07-25T05:43:18.574Z,27.8
2017-07-25T05:44:18.280Z,27.9
2017-07-25T05:45:13.636Z,27.9
2017-07-25T05:46:13.418Z,27.9
2017-07-25T05:47:13.521Z,27.9
2017-07-25T05:48:14.615Z,27.9
2017-07-25T05:49:16.787Z,28
2017-07-25T05:50:18.677Z,27.9
2017-07-25T05:51:14.088Z,28
2017-07-25T05:52:13.866Z,28
2017-07-25T05:53:14.121Z,28
2017-07-25T05:54:16.767Z,28.1
2017-07-25T05:55:14.240Z,28.1
2017-07-25T05:56:14.293Z,28.1
2017-07-25T05:57:14.341Z,28.1
2017-07-25T05:58:17.286Z,28.2
2017-07-25T05:59:17.302Z,28.2
2017-07-25T06:00:14.205Z,28.2
2017-07-25T06:01:17.084Z,28.2
2017-07-25T06:02:17.459Z,28.2
2017-07-25T06:03:14.661Z,28.1
2017-07-25T06:04:19.382Z,28.1
2017-07-25T06:05:14.406Z,28.1
2017-07-25T06:06:17.686Z,28.1
2017-07-25T06:07:17.714Z,28.1
2017-07-25T06:08:19.828Z,28.1
2017-07-25T06:09:17.369Z,28.1
2017-07-25T06:10:14.799Z,28.1
2017-07-25T06:11:18.500Z,28
2017-07-25T06:12:17.604Z,28.1
2017-07-25T06:13:19.679Z,28.2
2017-07-25T06:14:15.025Z,28.2
2017-07-25T06:15:15.118Z,28.2
2017-07-25T06:16:18.179Z,28.2
2017-07-25T06:17:14.834Z,28.3
2017-07-25T06:18:14.912Z,28.4
2017-07-25T06:19:14.887Z,28.4
2017-07-25T06:20:14.982Z,28.5
2017-07-25T06:21:19.097Z,28.5
2017-07-25T06:22:15.072Z,28.5
2017-07-25T06:23:20.114Z,28.5
2017-07-25T06:24:15.445Z,28.6
2017-07-25T06:25:15.810Z,28.5
2017-07-25T06:26:15.571Z,28.5
2017-07-25T06:27:18.547Z,28.5
2017-07-25T06:28:15.708Z,28.5
2017-07-25T06:29:15.751Z,28.5
2017-07-25T06:30:18.409Z,28.5
2017-07-25T06:31:15.640Z,28.4
2017-07-25T06:32:15.739Z,28.3
2017-07-25T06:33:15.994Z,28.4
2017-07-25T06:34:18.652Z,28.3
2017-07-25T06:35:16.623Z,28.3
2017-07-25T06:36:19.144Z,28.3
2017-07-25T06:37:21.168Z,28.3
2017-07-25T06:38:18.781Z,28.3
2017-07-25T06:39:21.253Z,28.3
2017-07-25T06:40:18.905Z,28.3
2017-07-25T06:41:16.830Z,28.3
2017-07-25T06:42:21.088Z,28.3
2017-07-25T06:43:20.024Z,28.3
2017-07-25T06:44:21.561Z,28.3
2017-07-25T06:45:16.359Z,28.3
2017-07-25T06:46:17.111Z,28.3
2017-07-25T06:47:16.658Z,28.3
2017-07-25T06:48:16.436Z,28.3
2017-07-25T06:49:19.392Z,28.3
2017-07-25T06:50:19.523Z,28.2
2017-07-25T06:51:22.037Z,28.2
2017-07-25T06:52:19.668Z,28.2
2017-07-25T06:53:21.838Z,28.2
2017-07-25T06:54:16.856Z,28.2
2017-07-25T06:55:19.783Z,28.2
2017-07-25T06:56:17.377Z,28.2
2017-07-25T06:57:22.005Z,28.4
2017-07-25T06:58:17.162Z,28.5
2017-07-25T06:59:17.552Z,28.6
2017-07-25T07:00:22.710Z,28.7
2017-07-25T07:01:18.035Z,28.8
2017-07-25T07:02:23.440Z,28.9
2017-07-25T07:03:17.613Z,28.9
2017-07-25T07:04:20.581Z,29
2017-07-25T07:05:17.973Z,29.1
2017-07-25T07:06:17.708Z,29.2
2017-07-25T07:07:23.349Z,29.2
2017-07-25T07:08:20.350Z,29.2
2017-07-25T07:09:20.911Z,29.2
2017-07-25T07:10:17.899Z,29.3
2017-07-25T07:11:17.918Z,29.2
2017-07-25T07:12:17.742Z,29.3
2017-07-25T07:13:22.622Z,29.3
2017-07-25T07:14:20.534Z,29.3
2017-07-25T07:15:23.090Z,29.2
2017-07-25T07:16:17.828Z,29.3
2017-07-25T07:17:22.812Z,29.2
2017-07-25T07:18:18.114Z,29.1
2017-07-25T07:19:25.557Z,29.2
2017-07-25T07:20:19.067Z,29.2
2017-07-25T07:21:24.788Z,29.2
2017-07-25T07:22:24.799Z,29.1
2017-07-25T07:23:22.224Z,29.1
2017-07-25T07:24:19.884Z,29.1
2017-07-25T07:25:18.386Z,29.1
2017-07-25T07:26:23.947Z,29.1
2017-07-25T07:27:18.883Z,29.2
2017-07-25T07:28:18.371Z,29.2
2017-07-25T07:29:24.812Z,29.2
2017-07-25T07:30:23.135Z,29.2
2017-07-25T07:31:26.406Z,29.1
2017-07-25T07:32:23.539Z,29.2
2017-07-25T07:33:18.832Z,29.3
2017-07-25T07:34:18.577Z,29.3
2017-07-25T07:35:18.722Z,29.3
2017-07-25T07:36:21.917Z,29.2
2017-07-25T07:37:24.683Z,29.2
2017-07-25T07:38:18.857Z,29.2
2017-07-25T07:39:22.778Z,29.2
2017-07-25T07:40:19.322Z,29.2
2017-07-25T07:41:22.193Z,29.2
2017-07-25T07:42:19.383Z,29.2
2017-07-25T07:43:23.508Z,29.2
2017-07-25T07:44:22.209Z,29.3
2017-07-25T07:45:24.007Z,29.3
2017-07-25T07:46:19.131Z,29.3
2017-07-25T07:47:19.493Z,29.3
2017-07-25T07:48:19.556Z,29.3
2017-07-25T07:49:23.504Z,29.3
2017-07-25T07:50:19.356Z,29.4
2017-07-25T07:51:20.890Z,29.3
2017-07-25T07:52:28.445Z,29.3
2017-07-25T07:53:22.510Z,29.3
2017-07-25T07:54:20.412Z,29.3
2017-07-25T07:55:20.340Z,29.3
2017-07-25T07:56:19.456Z,29.3
2017-07-25T07:57:25.322Z,29.3
2017-07-25T07:58:24.851Z,29.3
2017-07-25T07:59:22.462Z,29.2
2017-07-25T08:00:19.699Z,29.2
2017-07-25T08:01:22.894Z,29.1
2017-07-25T08:02:25.399Z,29.1
2017-07-25T08:03:25.523Z,29.1
2017-07-25T08:04:23.858Z,29.1
2017-07-25T08:05:25.587Z,29.1
2017-07-25T08:06:20.319Z,29
2017-07-25T08:07:23.275Z,28.9
2017-07-25T08:08:20.875Z,29
2017-07-25T08:09:20.637Z,29
2017-07-25T08:10:20.359Z,29
2017-07-25T08:11:23.541Z,29
2017-07-25T08:12:27.335Z,29
2017-07-25T08:13:20.503Z,29
2017-07-25T08:14:21.659Z,29
2017-07-25T08:15:23.877Z,29.1
2017-07-25T08:16:24.393Z,29.1
2017-07-25T08:17:27.416Z,29
2017-07-25T08:18:21.661Z,29
2017-07-25T08:19:21.266Z,28.9
2017-07-25T08:20:25.512Z,28.9
2017-07-25T08:21:21.050Z,28.8
2017-07-25T08:22:25.950Z,28.7
2017-07-25T08:23:26.813Z,28.8
2017-07-25T08:24:21.092Z,28.8
2017-07-25T08:25:22.095Z,28.8
2017-07-25T08:26:24.394Z,28.7
2017-07-25T08:27:26.568Z,28.7
2017-07-25T08:28:27.531Z,28.6
2017-07-25T08:29:27.456Z,28.6
2017-07-25T08:30:24.814Z,28.6
2017-07-25T08:31:26.601Z,28.6
2017-07-25T08:32:22.056Z,28.6
2017-07-25T08:33:27.687Z,28.6
2017-07-25T08:34:21.755Z,28.6
2017-07-25T08:35:21.761Z,28.6
2017-07-25T08:36:25.590Z,28.6
2017-07-25T08:37:22.247Z,28.6
2017-07-25T08:38:25.051Z,28.7
2017-07-25T08:39:23.036Z,28.7
2017-07-25T08:40:23.183Z,28.7
2017-07-25T08:41:22.895Z,28.8
2017-07-25T08:42:22.436Z,28.8
2017-07-25T08:43:25.447Z,28.8
2017-07-25T08:44:22.313Z,28.8
2017-07-25T08:45:27.214Z,28.9
2017-07-25T08:46:22.315Z,28.9
2017-07-25T08:47:22.321Z,28.9
2017-07-25T08:48:23.404Z,29
2017-07-25T08:49:23.237Z,29
2017-07-25T08:50:22.698Z,29.1
2017-07-25T08:51:27.708Z,29.1
2017-07-25T08:52:23.074Z,29.1
2017-07-25T08:53:22.557Z,29.1
2017-07-25T08:54:23.259Z,29.1
2017-07-25T08:55:28.856Z,29.3
2017-07-25T08:56:22.891Z,29.3
2017-07-25T08:57:25.895Z,29.3
2017-07-25T08:58:23.434Z,29.3
2017-07-25T08:59:23.540Z,29.4
2017-07-25T09:00:23.746Z,29.4
2017-07-25T09:01:25.919Z,29.4
2017-07-25T09:02:23.257Z,29.4
2017-07-25T09:03:23.578Z,29.4
2017-07-25T09:04:23.461Z,29.4
2017-07-25T09:05:27.308Z,29.4
2017-07-25T09:06:26.423Z,29.3
2017-07-25T09:07:33.501Z,29.3
2017-07-25T09:08:24.896Z,29.3
2017-07-25T09:09:24.514Z,29.3
2017-07-25T09:10:27.952Z,29.3
2017-07-25T09:11:23.540Z,29.3
2017-07-25T09:12:28.893Z,29.4
2017-07-25T09:13:28.998Z,29.5
2017-07-25T09:14:29.073Z,29.5
2017-07-25T09:15:25.094Z,29.4
2017-07-25T09:16:24.791Z,29.5
2017-07-25T09:17:24.089Z,29.5
2017-07-25T09:18:26.838Z,29.5
2017-07-25T09:19:24.402Z,29.6
2017-07-25T09:20:29.589Z,29.6
2017-07-25T09:21:25.413Z,29.7
2017-07-25T09:22:29.669Z,29.7
2017-07-25T09:23:24.159Z,29.8
2017-07-25T09:24:29.108Z,29.8
2017-07-25T09:25:24.317Z,29.7
2017-07-25T09:26:29.147Z,29.7
2017-07-25T09:27:28.575Z,29.7
2017-07-25T09:28:24.403Z,29.7
2017-07-25T09:29:24.753Z,29.7
2017-07-25T09:30:29.490Z,29.6
2017-07-25T09:31:25.491Z,29.7
2017-07-25T09:32:31.043Z,29.8
2017-07-25T09:33:29.789Z,29.8
2017-07-25T09:34:27.858Z,29.8
2017-07-25T09:35:25.949Z,29.9
2017-07-25T09:36:30.536Z,29.9
2017-07-25T09:37:24.779Z,29.9
2017-07-25T09:38:27.026Z,29.9
2017-07-25T09:39:28.010Z,29.9
2017-07-25T09:40:28.170Z,29.9
2017-07-25T09:41:29.844Z,29.9
2017-07-25T09:42:25.551Z,29.9
2017-07-25T09:43:27.986Z,29.9
2017-07-25T09:44:25.239Z,30
2017-07-25T09:45:25.844Z,30
2017-07-25T09:46:31.171Z,29.9
2017-07-25T09:47:25.581Z,29.9
2017-07-25T09:48:28.515Z,29.8
2017-07-25T09:49:28.896Z,29.9
2017-07-25T09:50:26.319Z,29.8
2017-07-25T09:51:25.362Z,29.8
2017-07-25T09:52:25.987Z,29.8
2017-07-25T09:53:26.950Z,29.7
2017-07-25T09:54:29.267Z,29.7
2017-07-25T09:55:26.231Z,29.7
2017-07-25T09:56:27.229Z,29.8
2017-07-25T09:57:32.268Z,29.8
2017-07-25T09:58:34.370Z,29.8
2017-07-25T09:59:30.503Z,29.8
2017-07-25T10:00:31.669Z,29.8
2017-07-25T10:01:27.484Z,29.8
2017-07-25T10:02:32.460Z,29.8
2017-07-25T10:03:32.310Z,29.9
2017-07-25T10:04:26.715Z,30
2017-07-25T10:05:27.832Z,30
2017-07-25T10:06:33.907Z,30
2017-07-25T10:07:30.147Z,30.1
2017-07-25T10:08:34.060Z,30.1
2017-07-25T10:09:31.853Z,30.2
2017-07-25T10:10:30.663Z,30.2
2017-07-25T10:11:32.018Z,30.3
2017-07-25T10:12:33.990Z,30.3
2017-07-25T10:13:28.728Z,30.3
2017-07-25T10:14:32.242Z,30.4
2017-07-25T10:15:27.097Z,30.4
2017-07-25T10:16:28.019Z,30.4
2017-07-25T10:17:32.382Z,30.4
2017-07-25T10:18:34.006Z,30.3
2017-07-25T10:19:28.074Z,30.3
2017-07-25T10:20:31.603Z,30.3
2017-07-25T10:21:32.198Z,30.2
2017-07-25T10:22:27.315Z,30.1
2017-07-25T10:23:27.714Z,30.1
2017-07-25T10:24:27.806Z,30.1
2017-07-25T10:25:28.749Z,30.1
2017-07-25T10:26:31.002Z,30.1
2017-07-25T10:27:28.347Z,30.1
2017-07-25T10:28:27.807Z,30.1
2017-07-25T10:29:27.814Z,30.1
2017-07-25T10:30:28.172Z,30.1
2017-07-25T10:31:33.620Z,30.1
2017-07-25T10:32:30.837Z,30
2017-07-25T10:33:28.286Z,30
2017-07-25T10:34:30.983Z,30
2017-07-25T10:35:33.163Z,30
2017-07-25T10:36:32.152Z,30
2017-07-25T10:37:28.292Z,29.9
2017-07-25T10:38:33.547Z,29.9
2017-07-25T10:39:33.373Z,29.9
2017-07-25T10:40:28.365Z,29.9
2017-07-25T10:41:31.660Z,29.9
2017-07-25T10:42:34.005Z,29.9
2017-07-25T10:43:30.092Z,29.8
2017-07-25T10:44:31.531Z,29.8
2017-07-25T10:45:34.033Z,29.8
2017-07-25T10:46:33.705Z,29.8
2017-07-25T10:47:31.976Z,29.8
2017-07-25T10:48:34.558Z,29.9
2017-07-25T10:49:33.837Z,29.8
2017-07-25T10:50:32.446Z,29.9
2017-07-25T10:51:35.587Z,29.9
2017-07-25T10:52:29.015Z,29.9
2017-07-25T10:53:29.936Z,30
2017-07-25T10:54:29.369Z,30
2017-07-25T10:55:29.202Z,29.9
2017-07-25T10:56:31.057Z,29.9
2017-07-25T10:57:34.526Z,29.9
2017-07-25T10:58:29.923Z,29.9
2017-07-25T10:59:32.527Z,29.9
2017-07-25T11:00:33.306Z,29.9
2017-07-25T11:01:32.359Z,29.9
2017-07-25T11:02:30.129Z,29.9
2017-07-25T11:03:29.831Z,29.8
2017-07-25T11:04:34.878Z,29.9
2017-07-25T11:05:29.970Z,29.8
2017-07-25T11:06:33.223Z,29.7
2017-07-25T11:07:32.870Z,29.7
2017-07-25T11:08:34.728Z,29.5
2017-07-25T11:09:35.704Z,29.5
2017-07-25T11:10:32.960Z,29.4
2017-07-25T11:11:30.101Z,29.2
2017-07-25T11:12:30.149Z,29.2
2017-07-25T11:13:33.866Z,29.2
2017-07-25T11:14:35.249Z,29.2
2017-07-25T11:15:30.356Z,29.2
2017-07-25T11:16:35.065Z,29.2
2017-07-25T11:17:33.350Z,29.3
2017-07-25T11:18:30.809Z,29.3
2017-07-25T11:19:30.394Z,29.3
2017-07-25T11:20:35.082Z,29.2
2017-07-25T11:21:31.672Z,29.1
2017-07-25T11:22:35.679Z,29.1
2017-07-25T11:23:30.937Z,29.1
2017-07-25T11:24:36.102Z,29.1
2017-07-25T11:25:35.775Z,29.1
2017-07-25T11:26:30.673Z,29.2
2017-07-25T11:27:36.442Z,29.2
2017-07-25T11:28:31.090Z,29.2
2017-07-25T11:29:33.859Z,29.3
2017-07-25T11:30:36.778Z,29.3
2017-07-25T11:31:32.277Z,29.5
2017-07-25T11:32:38.831Z,29.6
2017-07-25T11:33:36.872Z,29.8
2017-07-25T11:34:31.393Z,29.9
2017-07-25T11:35:35.831Z,30.1
2017-07-25T11:36:33.258Z,30.2
2017-07-25T11:37:31.073Z,30.3
2017-07-25T11:38:33.970Z,30.3
2017-07-25T11:39:33.136Z,30.5
2017-07-25T11:40:32.271Z,30.6
2017-07-25T11:41:37.822Z,30.6
2017-07-25T11:42:31.546Z,30.7
2017-07-25T11:43:31.579Z,30.8
2017-07-25T11:44:31.888Z,30.8
2017-07-25T11:45:34.545Z,30.8
2017-07-25T11:46:31.950Z,30.9
2017-07-25T11:47:32.751Z,30.9
2017-07-25T11:48:38.756Z,30.9
2017-07-25T11:49:38.602Z,31
2017-07-25T11:50:34.704Z,31
2017-07-25T11:51:32.213Z,31
2017-07-25T11:52:35.241Z,31
2017-07-25T11:53:37.226Z,31.1
2017-07-25T11:54:33.269Z,31.1
2017-07-25T11:55:32.630Z,31.2
2017-07-25T11:56:33.368Z,31.2
2017-07-25T11:57:38.730Z,31.2
2017-07-25T11:58:36.121Z,31.3
2017-07-25T11:59:35.763Z,31.3
2017-07-25T12:00:37.076Z,31.4
2017-07-25T12:01:32.818Z,31.4
2017-07-25T12:02:37.573Z,31.4
2017-07-25T12:03:37.497Z,31.5
2017-07-25T12:04:33.356Z,31.5
2017-07-25T12:05:32.940Z,31.5
2017-07-25T12:06:38.164Z,31.5
2017-07-25T12:07:33.024Z,31.5
2017-07-25T12:08:35.104Z,31.5
2017-07-25T12:09:32.847Z,31.6
2017-07-25T12:10:33.028Z,31.6
2017-07-25T12:11:33.101Z,31.6
2017-07-25T12:12:33.568Z,31.6
2017-07-25T12:13:38.758Z,31.7
2017-07-25T12:14:36.591Z,31.7
2017-07-25T12:15:38.423Z,31.7
2017-07-25T12:16:37.107Z,31.8
2017-07-25T12:17:35.028Z,31.8
2017-07-25T12:18:36.369Z,31.8
2017-07-25T12:19:33.422Z,31.8
2017-07-25T12:20:39.171Z,31.8
2017-07-25T12:21:38.376Z,31.8
2017-07-25T12:22:39.724Z,31.8
2017-07-25T12:23:33.980Z,31.8
2017-07-25T12:24:39.309Z,31.8
2017-07-25T12:25:38.795Z,31.8
2017-07-25T12:26:38.318Z,31.8
2017-07-25T12:27:34.333Z,31.8
2017-07-25T12:28:38.098Z,31.8
2017-07-25T12:29:42.465Z,31.9
2017-07-25T12:30:34.908Z,31.9
2017-07-25T12:31:37.246Z,31.9
2017-07-25T12:32:37.011Z,31.9
2017-07-25T12:33:34.100Z,31.9
2017-07-25T12:34:34.143Z,31.9
2017-07-25T12:35:37.029Z,31.9
2017-07-25T12:36:34.654Z,31.9
2017-07-25T12:37:38.849Z,31.9
2017-07-25T12:38:35.334Z,31.9
2017-07-25T12:39:35.149Z,31.9
2017-07-25T12:40:41.149Z,31.9
2017-07-25T12:41:36.118Z,31.9
2017-07-25T12:42:36.146Z,31.9
2017-07-25T12:43:40.169Z,32
2017-07-25T12:44:40.564Z,32
2017-07-25T12:45:35.638Z,32.1
2017-07-25T12:46:35.202Z,32.1
2017-07-25T12:47:40.481Z,32.2
2017-07-25T12:48:35.673Z,32.1
2017-07-25T12:49:38.924Z,32.2
2017-07-25T12:50:35.359Z,32.2
2017-07-25T12:51:41.540Z,32.2
2017-07-25T12:52:40.134Z,32.2
2017-07-25T12:53:42.030Z,32.2
2017-07-25T12:54:38.524Z,32.2
2017-07-25T12:55:38.402Z,32.1
2017-07-25T12:56:36.557Z,32.1
2017-07-25T12:57:41.319Z,32.1
2017-07-25T12:58:37.033Z,32.1
2017-07-25T12:59:35.670Z,32.1
2017-07-25T13:00:41.738Z,32.1
2017-07-25T13:01:39.129Z,32
2017-07-25T13:02:42.264Z,32
2017-07-25T13:03:38.705Z,31.9
2017-07-25T13:04:36.934Z,31.7
2017-07-25T13:05:36.383Z,31.5
2017-07-25T13:06:38.872Z,31.4
2017-07-25T13:07:41.378Z,31.2
2017-07-25T13:08:36.269Z,31
2017-07-25T13:09:36.452Z,30.8
2017-07-25T13:10:41.231Z,30.8
2017-07-25T13:11:42.939Z,30.6
2017-07-25T13:12:38.952Z,30.6
2017-07-25T13:13:41.814Z,30.5
2017-07-25T13:14:37.998Z,30.5
2017-07-25T13:15:36.526Z,30.5
2017-07-25T13:16:39.376Z,30.4
2017-07-25T13:17:39.736Z,30.2
2017-07-25T13:18:41.011Z,30.2
2017-07-25T13:19:39.771Z,30
2017-07-25T13:20:38.207Z,29.9
2017-07-25T13:21:36.991Z,29.8
2017-07-25T13:22:36.726Z,29.7